Terminal Aerodrome Forecast
Issued by NWS

Home | Current Version | Previous Version | Text Only | Print | Product List | Glossary On
Versions: 1 2 3 4 5 6 7 8 9 10 11 12 13 14 15 16 17 18
000
FTAK31 PAJN 290600 AAA
TAFAJN
TAF AMD
PAJN 290650Z 2907/3006 10010KT P6SM -RA SCT030 OVC060
     FM291400 11014G22KT 6SM -RA SCT020 OVC050
     FM291900 15010KT P6SM -SHRA SCT030 OVC060
     FM300100 10007KT P6SM -SHRA SCT030 OVC040=

USA.gov is the U.S. government's official web portal to all federal, state and local government web resources and services.